sensor_id;sensor_type;location;lat;lon;timestamp;P1;durP1;ratioP1;P2;durP2;ratioP2
25207;SDS011;13153;52.316;21.166;2023-04-24T00:00:28;12.60;;;7.05;;
25207;SDS011;13153;52.316;21.166;2023-04-24T00:02:54;12.05;;;7.63;;
25207;SDS011;13153;52.316;21.166;2023-04-24T00:05:21;10.55;;;7.22;;
25207;SDS011;13153;52.316;21.166;2023-04-24T00:07:48;12.40;;;7.28;;
25207;SDS011;13153;52.316;21.166;2023-04-24T00:10:17;12.75;;;7.38;;
25207;SDS011;13153;52.316;21.166;2023-04-24T00:12:43;11.27;;;7.28;;
25207;SDS011;13153;52.316;21.166;2023-04-24T00:15:09;14.25;;;7.95;;
25207;SDS011;13153;52.316;21.166;2023-04-24T00:17:36;9.85;;;7.50;;
25207;SDS011;13153;52.316;21.166;2023-04-24T00:20:02;12.85;;;7.80;;
25207;SDS011;13153;52.316;21.166;2023-04-24T00:22:30;13.13;;;7.80;;
25207;SDS011;13153;52.316;21.166;2023-04-24T00:24:56;11.65;;;7.57;;
25207;SDS011;13153;52.316;21.166;2023-04-24T00:27:22;12.73;;;7.68;;
25207;SDS011;13153;52.316;21.166;2023-04-24T00:29:48;9.32;;;7.20;;
25207;SDS011;13153;52.316;21.166;2023-04-24T00:32:14;10.98;;;7.43;;
25207;SDS011;13153;52.316;21.166;2023-04-24T00:34:40;12.35;;;7.57;;
25207;SDS011;13153;52.316;21.166;2023-04-24T00:37:07;12.65;;;7.68;;
25207;SDS011;13153;52.316;21.166;2023-04-24T00:39:33;12.23;;;7.50;;
25207;SDS011;13153;52.316;21.166;2023-04-24T00:41:59;11.98;;;7.70;;
25207;SDS011;13153;52.316;21.166;2023-04-24T00:44:26;13.98;;;7.65;;
25207;SDS011;13153;52.316;21.166;2023-04-24T00:46:52;12.98;;;7.65;;
25207;SDS011;13153;52.316;21.166;2023-04-24T00:49:20;14.32;;;8.27;;
25207;SDS011;13153;52.316;21.166;2023-04-24T00:51:47;13.38;;;8.02;;
25207;SDS011;13153;52.316;21.166;2023-04-24T00:54:14;13.00;;;7.88;;
25207;SDS011;13153;52.316;21.166;2023-04-24T00:56:40;12.65;;;7.53;;
25207;SDS011;13153;52.316;21.166;2023-04-24T00:59:08;14.57;;;7.55;;
25207;SDS011;13153;52.316;21.166;2023-04-24T01:01:34;12.18;;;8.02;;
25207;SDS011;13153;52.316;21.166;2023-04-24T01:04:01;12.18;;;8.15;;
25207;SDS011;13153;52.316;21.166;2023-04-24T01:06:27;11.95;;;7.53;;
25207;SDS011;13153;52.316;21.166;2023-04-24T01:08:56;12.23;;;7.45;;
25207;SDS011;13153;52.316;21.166;2023-04-24T01:11:24;11.75;;;7.60;;
25207;SDS011;13153;52.316;21.166;2023-04-24T01:13:50;15.13;;;8.05;;
25207;SDS011;13153;52.316;21.166;2023-04-24T01:16:17;13.60;;;8.02;;
25207;SDS011;13153;52.316;21.166;2023-04-24T01:18:45;11.10;;;7.90;;
25207;SDS011;13153;52.316;21.166;2023-04-24T01:21:13;11.82;;;8.15;;
25207;SDS011;13153;52.316;21.166;2023-04-24T01:23:42;11.65;;;7.57;;
25207;SDS011;13153;52.316;21.166;2023-04-24T01:26:11;17.00;;;8.10;;
25207;SDS011;13153;52.316;21.166;2023-04-24T01:28:40;12.30;;;7.85;;
25207;SDS011;13153;52.316;21.166;2023-04-24T01:31:06;15.32;;;7.90;;
25207;SDS011;13153;52.316;21.166;2023-04-24T01:33:32;13.88;;;7.70;;
25207;SDS011;13153;52.316;21.166;2023-04-24T01:35:58;11.85;;;8.18;;
25207;SDS011;13153;52.316;21.166;2023-04-24T01:38:24;12.32;;;7.75;;
25207;SDS011;13153;52.316;21.166;2023-04-24T01:40:50;12.50;;;7.80;;
25207;SDS011;13153;52.316;21.166;2023-04-24T01:43:17;11.20;;;7.88;;
25207;SDS011;13153;52.316;21.166;2023-04-24T01:45:44;11.80;;;7.80;;
25207;SDS011;13153;52.316;21.166;2023-04-24T01:48:10;14.27;;;8.27;;
25207;SDS011;13153;52.316;21.166;2023-04-24T01:50:37;13.07;;;8.05;;
25207;SDS011;13153;52.316;21.166;2023-04-24T01:53:03;12.93;;;7.88;;
25207;SDS011;13153;52.316;21.166;2023-04-24T01:55:29;11.35;;;7.57;;
25207;SDS011;13153;52.316;21.166;2023-04-24T01:57:55;15.93;;;8.48;;
25207;SDS011;13153;52.316;21.166;2023-04-24T02:00:24;12.98;;;8.27;;
25207;SDS011;13153;52.316;21.166;2023-04-24T02:02:50;13.63;;;8.30;;
25207;SDS011;13153;52.316;21.166;2023-04-24T02:05:16;12.25;;;8.15;;
25207;SDS011;13153;52.316;21.166;2023-04-24T02:07:42;13.48;;;8.40;;
25207;SDS011;13153;52.316;21.166;2023-04-24T02:10:07;14.25;;;7.90;;
25207;SDS011;13153;52.316;21.166;2023-04-24T02:12:34;12.85;;;8.23;;
25207;SDS011;13153;52.316;21.166;2023-04-24T02:15:00;13.88;;;8.20;;
25207;SDS011;13153;52.316;21.166;2023-04-24T02:17:26;14.30;;;8.68;;
25207;SDS011;13153;52.316;21.166;2023-04-24T02:19:51;14.40;;;8.05;;
25207;SDS011;13153;52.316;21.166;2023-04-24T02:22:17;12.88;;;8.43;;
25207;SDS011;13153;52.316;21.166;2023-04-24T02:24:43;14.80;;;8.93;;
25207;SDS011;13153;52.316;21.166;2023-04-24T02:27:09;18.40;;;9.45;;
25207;SDS011;13153;52.316;21.166;2023-04-24T02:29:36;20.45;;;9.20;;
25207;SDS011;13153;52.316;21.166;2023-04-24T02:32:02;14.95;;;8.90;;
25207;SDS011;13153;52.316;21.166;2023-04-24T02:34:27;15.55;;;8.88;;
25207;SDS011;13153;52.316;21.166;2023-04-24T02:36:53;15.10;;;8.90;;
25207;SDS011;13153;52.316;21.166;2023-04-24T02:39:19;17.58;;;9.02;;
25207;SDS011;13153;52.316;21.166;2023-04-24T02:41:45;16.73;;;8.45;;
25207;SDS011;13153;52.316;21.166;2023-04-24T02:44:11;21.02;;;8.95;;
25207;SDS011;13153;52.316;21.166;2023-04-24T02:46:37;14.30;;;8.38;;
25207;SDS011;13153;52.316;21.166;2023-04-24T02:49:03;16.55;;;9.18;;
25207;SDS011;13153;52.316;21.166;2023-04-24T02:51:28;16.67;;;8.60;;
25207;SDS011;13153;52.316;21.166;2023-04-24T02:53:54;18.20;;;9.10;;
25207;SDS011;13153;52.316;21.166;2023-04-24T02:56:20;17.25;;;8.98;;
25207;SDS011;13153;52.316;21.166;2023-04-24T02:58:46;17.98;;;9.07;;
25207;SDS011;13153;52.316;21.166;2023-04-24T03:01:12;18.25;;;8.68;;
25207;SDS011;13153;52.316;21.166;2023-04-24T03:03:38;14.20;;;8.05;;
25207;SDS011;13153;52.316;21.166;2023-04-24T03:06:04;16.70;;;9.10;;
25207;SDS011;13153;52.316;21.166;2023-04-24T03:08:33;14.50;;;9.18;;
25207;SDS011;13153;52.316;21.166;2023-04-24T03:10:59;17.23;;;9.20;;
25207;SDS011;13153;52.316;21.166;2023-04-24T03:13:25;18.00;;;9.25;;
25207;SDS011;13153;52.316;21.166;2023-04-24T03:15:50;15.88;;;8.63;;
25207;SDS011;13153;52.316;21.166;2023-04-24T03:18:16;14.88;;;8.70;;
25207;SDS011;13153;52.316;21.166;2023-04-24T03:20:42;16.90;;;9.05;;
25207;SDS011;13153;52.316;21.166;2023-04-24T03:23:11;18.60;;;9.80;;
25207;SDS011;13153;52.316;21.166;2023-04-24T03:25:37;16.20;;;9.00;;
25207;SDS011;13153;52.316;21.166;2023-04-24T03:28:02;14.10;;;8.88;;
25207;SDS011;13153;52.316;21.166;2023-04-24T03:30:28;13.57;;;9.20;;
25207;SDS011;13153;52.316;21.166;2023-04-24T03:32:54;14.80;;;9.63;;
25207;SDS011;13153;52.316;21.166;2023-04-24T03:35:20;18.70;;;9.55;;
25207;SDS011;13153;52.316;21.166;2023-04-24T03:37:46;15.15;;;9.10;;
25207;SDS011;13153;52.316;21.166;2023-04-24T03:40:12;13.15;;;8.95;;
25207;SDS011;13153;52.316;21.166;2023-04-24T03:42:38;19.33;;;9.55;;
25207;SDS011;13153;52.316;21.166;2023-04-24T03:45:04;13.98;;;8.88;;
25207;SDS011;13153;52.316;21.166;2023-04-24T03:47:31;13.90;;;9.25;;
25207;SDS011;13153;52.316;21.166;2023-04-24T03:49:56;15.88;;;8.93;;
25207;SDS011;13153;52.316;21.166;2023-04-24T03:52:22;16.45;;;8.95;;
25207;SDS011;13153;52.316;21.166;2023-04-24T03:54:48;17.65;;;9.73;;
25207;SDS011;13153;52.316;21.166;2023-04-24T03:57:14;20.20;;;9.40;;
25207;SDS011;13153;52.316;21.166;2023-04-24T03:59:39;19.25;;;8.93;;
25207;SDS011;13153;52.316;21.166;2023-04-24T04:02:05;17.83;;;9.70;;
25207;SDS011;13153;52.316;21.166;2023-04-24T04:04:31;16.42;;;8.60;;
25207;SDS011;13153;52.316;21.166;2023-04-24T04:06:57;13.45;;;8.55;;
25207;SDS011;13153;52.316;21.166;2023-04-24T04:09:26;21.98;;;9.25;;
25207;SDS011;13153;52.316;21.166;2023-04-24T04:11:52;19.17;;;9.65;;
25207;SDS011;13153;52.316;21.166;2023-04-24T04:14:18;13.88;;;8.98;;
25207;SDS011;13153;52.316;21.166;2023-04-24T04:16:44;14.68;;;8.93;;
25207;SDS011;13153;52.316;21.166;2023-04-24T04:19:10;17.33;;;9.23;;
25207;SDS011;13153;52.316;21.166;2023-04-24T04:21:35;15.93;;;9.25;;
25207;SDS011;13153;52.316;21.166;2023-04-24T04:24:01;20.58;;;11.70;;
25207;SDS011;13153;52.316;21.166;2023-04-24T04:26:27;20.35;;;10.68;;
25207;SDS011;13153;52.316;21.166;2023-04-24T04:28:53;22.27;;;10.88;;
25207;SDS011;13153;52.316;21.166;2023-04-24T04:31:19;20.48;;;10.88;;
25207;SDS011;13153;52.316;21.166;2023-04-24T04:33:46;14.57;;;9.35;;
25207;SDS011;13153;52.316;21.166;2023-04-24T04:36:11;17.55;;;9.48;;
25207;SDS011;13153;52.316;21.166;2023-04-24T04:38:37;17.33;;;9.25;;
25207;SDS011;13153;52.316;21.166;2023-04-24T04:41:03;17.67;;;8.90;;
25207;SDS011;13153;52.316;21.166;2023-04-24T04:43:29;14.10;;;8.63;;
25207;SDS011;13153;52.316;21.166;2023-04-24T04:45:56;14.68;;;8.23;;
25207;SDS011;13153;52.316;21.166;2023-04-24T04:48:23;11.93;;;8.48;;
25207;SDS011;13153;52.316;21.166;2023-04-24T04:50:49;12.27;;;8.25;;
25207;SDS011;13153;52.316;21.166;2023-04-24T04:53:15;14.65;;;8.25;;
25207;SDS011;13153;52.316;21.166;2023-04-24T04:55:40;14.60;;;8.23;;
25207;SDS011;13153;52.316;21.166;2023-04-24T04:58:06;12.73;;;8.48;;
25207;SDS011;13153;52.316;21.166;2023-04-24T05:00:32;13.30;;;8.13;;
25207;SDS011;13153;52.316;21.166;2023-04-24T05:03:01;12.48;;;7.80;;
25207;SDS011;13153;52.316;21.166;2023-04-24T05:05:27;12.80;;;8.32;;
25207;SDS011;13153;52.316;21.166;2023-04-24T05:07:53;11.48;;;8.07;;
25207;SDS011;13153;52.316;21.166;2023-04-24T05:10:19;12.68;;;7.80;;
25207;SDS011;13153;52.316;21.166;2023-04-24T05:12:45;15.43;;;8.45;;
25207;SDS011;13153;52.316;21.166;2023-04-24T05:15:11;13.20;;;8.10;;
25207;SDS011;13153;52.316;21.166;2023-04-24T05:17:36;11.80;;;7.75;;
25207;SDS011;13153;52.316;21.166;2023-04-24T05:20:03;11.07;;;7.68;;
25207;SDS011;13153;52.316;21.166;2023-04-24T05:22:32;13.60;;;7.68;;
25207;SDS011;13153;52.316;21.166;2023-04-24T05:24:58;14.55;;;8.02;;
25207;SDS011;13153;52.316;21.166;2023-04-24T05:27:24;12.45;;;7.72;;
25207;SDS011;13153;52.316;21.166;2023-04-24T05:29:50;17.05;;;8.20;;
25207;SDS011;13153;52.316;21.166;2023-04-24T05:32:16;11.60;;;7.40;;
25207;SDS011;13153;52.316;21.166;2023-04-24T05:34:42;11.85;;;7.55;;
25207;SDS011;13153;52.316;21.166;2023-04-24T05:37:07;13.77;;;7.47;;
25207;SDS011;13153;52.316;21.166;2023-04-24T05:39:35;12.57;;;7.43;;
25207;SDS011;13153;52.316;21.166;2023-04-24T05:42:01;15.68;;;8.30;;
25207;SDS011;13153;52.316;21.166;2023-04-24T05:44:28;11.90;;;7.38;;
25207;SDS011;13153;52.316;21.166;2023-04-24T05:46:54;11.57;;;7.18;;
25207;SDS011;13153;52.316;21.166;2023-04-24T05:49:20;18.02;;;7.72;;
25207;SDS011;13153;52.316;21.166;2023-04-24T05:51:46;14.90;;;7.30;;
25207;SDS011;13153;52.316;21.166;2023-04-24T05:54:12;15.30;;;7.25;;
25207;SDS011;13153;52.316;21.166;2023-04-24T05:56:38;11.18;;;6.95;;
25207;SDS011;13153;52.316;21.166;2023-04-24T05:59:05;10.88;;;7.07;;
25207;SDS011;13153;52.316;21.166;2023-04-24T06:01:32;10.95;;;7.15;;
25207;SDS011;13153;52.316;21.166;2023-04-24T06:03:58;12.25;;;7.18;;
25207;SDS011;13153;52.316;21.166;2023-04-24T06:06:24;12.85;;;8.00;;
25207;SDS011;13153;52.316;21.166;2023-04-24T06:08:50;11.18;;;7.20;;
25207;SDS011;13153;52.316;21.166;2023-04-24T06:11:16;11.95;;;7.18;;
25207;SDS011;13153;52.316;21.166;2023-04-24T06:13:42;11.63;;;6.95;;
25207;SDS011;13153;52.316;21.166;2023-04-24T06:16:08;11.88;;;7.20;;
25207;SDS011;13153;52.316;21.166;2023-04-24T06:18:34;12.95;;;6.78;;
25207;SDS011;13153;52.316;21.166;2023-04-24T06:20:59;11.73;;;7.10;;
25207;SDS011;13153;52.316;21.166;2023-04-24T06:23:25;11.13;;;6.75;;
25207;SDS011;13153;52.316;21.166;2023-04-24T06:25:51;9.68;;;6.97;;
25207;SDS011;13153;52.316;21.166;2023-04-24T06:28:17;12.05;;;6.25;;
25207;SDS011;13153;52.316;21.166;2023-04-24T06:30:43;11.25;;;6.75;;
25207;SDS011;13153;52.316;21.166;2023-04-24T06:33:08;11.38;;;6.22;;
25207;SDS011;13153;52.316;21.166;2023-04-24T06:35:35;14.18;;;6.78;;
25207;SDS011;13153;52.316;21.166;2023-04-24T06:38:02;12.75;;;6.53;;
25207;SDS011;13153;52.316;21.166;2023-04-24T06:40:28;13.25;;;6.20;;
25207;SDS011;13153;52.316;21.166;2023-04-24T06:42:54;10.25;;;6.30;;
25207;SDS011;13153;52.316;21.166;2023-04-24T06:45:20;12.55;;;6.13;;
25207;SDS011;13153;52.316;21.166;2023-04-24T06:47:46;9.15;;;5.85;;
25207;SDS011;13153;52.316;21.166;2023-04-24T06:50:12;11.40;;;5.90;;
25207;SDS011;13153;52.316;21.166;2023-04-24T06:52:38;10.65;;;5.78;;
25207;SDS011;13153;52.316;21.166;2023-04-24T06:55:04;9.75;;;5.60;;
25207;SDS011;13153;52.316;21.166;2023-04-24T06:57:31;10.98;;;6.20;;
25207;SDS011;13153;52.316;21.166;2023-04-24T06:59:57;10.68;;;6.20;;
25207;SDS011;13153;52.316;21.166;2023-04-24T07:02:23;10.05;;;5.80;;
25207;SDS011;13153;52.316;21.166;2023-04-24T07:04:50;9.45;;;6.07;;
25207;SDS011;13153;52.316;21.166;2023-04-24T07:07:15;9.98;;;5.78;;
25207;SDS011;13153;52.316;21.166;2023-04-24T07:09:41;7.40;;;5.50;;
25207;SDS011;13153;52.316;21.166;2023-04-24T07:12:10;11.98;;;6.00;;
25207;SDS011;13153;52.316;21.166;2023-04-24T07:14:37;10.07;;;5.80;;
25207;SDS011;13153;52.316;21.166;2023-04-24T07:17:03;11.95;;;5.63;;
25207;SDS011;13153;52.316;21.166;2023-04-24T07:19:30;10.88;;;6.35;;
25207;SDS011;13153;52.316;21.166;2023-04-24T07:21:57;14.27;;;7.50;;
25207;SDS011;13153;52.316;21.166;2023-04-24T07:24:24;10.63;;;6.18;;
25207;SDS011;13153;52.316;21.166;2023-04-24T07:26:51;9.73;;;5.60;;
25207;SDS011;13153;52.316;21.166;2023-04-24T07:29:20;10.18;;;5.30;;
25207;SDS011;13153;52.316;21.166;2023-04-24T07:31:46;8.73;;;5.53;;
25207;SDS011;13153;52.316;21.166;2023-04-24T07:34:12;12.20;;;5.80;;
25207;SDS011;13153;52.316;21.166;2023-04-24T07:36:37;17.67;;;6.18;;
25207;SDS011;13153;52.316;21.166;2023-04-24T07:39:04;10.35;;;5.82;;
25207;SDS011;13153;52.316;21.166;2023-04-24T07:41:31;8.93;;;5.88;;
25207;SDS011;13153;52.316;21.166;2023-04-24T07:43:56;7.55;;;5.50;;
25207;SDS011;13153;52.316;21.166;2023-04-24T07:46:23;12.52;;;5.95;;
25207;SDS011;13153;52.316;21.166;2023-04-24T07:48:50;14.82;;;6.55;;
25207;SDS011;13153;52.316;21.166;2023-04-24T07:51:16;14.18;;;6.60;;
25207;SDS011;13153;52.316;21.166;2023-04-24T07:53:43;9.52;;;6.10;;
25207;SDS011;13153;52.316;21.166;2023-04-24T07:56:08;11.27;;;5.90;;
25207;SDS011;13153;52.316;21.166;2023-04-24T07:58:35;14.45;;;6.28;;
25207;SDS011;13153;52.316;21.166;2023-04-24T08:01:01;8.50;;;5.80;;
25207;SDS011;13153;52.316;21.166;2023-04-24T08:03:26;14.48;;;6.50;;
25207;SDS011;13153;52.316;21.166;2023-04-24T08:05:52;10.65;;;5.45;;
25207;SDS011;13153;52.316;21.166;2023-04-24T08:08:20;11.30;;;6.40;;
25207;SDS011;13153;52.316;21.166;2023-04-24T08:10:48;11.60;;;6.45;;
25207;SDS011;13153;52.316;21.166;2023-04-24T08:13:15;11.85;;;6.20;;
25207;SDS011;13153;52.316;21.166;2023-04-24T08:15:40;10.00;;;6.18;;
25207;SDS011;13153;52.316;21.166;2023-04-24T08:18:06;9.38;;;5.95;;
25207;SDS011;13153;52.316;21.166;2023-04-24T08:20:32;9.65;;;5.47;;
25207;SDS011;13153;52.316;21.166;2023-04-24T08:22:58;10.60;;;5.60;;
25207;SDS011;13153;52.316;21.166;2023-04-24T08:25:24;14.80;;;6.72;;
25207;SDS011;13153;52.316;21.166;2023-04-24T08:27:50;12.30;;;5.88;;
25207;SDS011;13153;52.316;21.166;2023-04-24T08:30:16;8.18;;;5.65;;
25207;SDS011;13153;52.316;21.166;2023-04-24T08:32:43;13.13;;;5.63;;
25207;SDS011;13153;52.316;21.166;2023-04-24T08:35:09;9.13;;;5.47;;
25207;SDS011;13153;52.316;21.166;2023-04-24T08:37:35;11.43;;;6.10;;
25207;SDS011;13153;52.316;21.166;2023-04-24T08:40:11;12.43;;;5.90;;
25207;SDS011;13153;52.316;21.166;2023-04-24T08:42:41;8.88;;;5.60;;
25207;SDS011;13153;52.316;21.166;2023-04-24T08:45:08;10.30;;;5.28;;
25207;SDS011;13153;52.316;21.166;2023-04-24T08:47:40;9.68;;;5.28;;
25207;SDS011;13153;52.316;21.166;2023-04-24T08:50:08;10.10;;;5.63;;
25207;SDS011;13153;52.316;21.166;2023-04-24T08:52:35;10.27;;;5.13;;
25207;SDS011;13153;52.316;21.166;2023-04-24T08:55:01;11.95;;;5.68;;
25207;SDS011;13153;52.316;21.166;2023-04-24T08:57:27;7.70;;;4.95;;
25207;SDS011;13153;52.316;21.166;2023-04-24T08:59:54;9.95;;;5.30;;
25207;SDS011;13153;52.316;21.166;2023-04-24T09:02:23;11.15;;;5.20;;
25207;SDS011;13153;52.316;21.166;2023-04-24T09:04:50;11.35;;;5.45;;
25207;SDS011;13153;52.316;21.166;2023-04-24T09:07:17;8.75;;;5.47;;
25207;SDS011;13153;52.316;21.166;2023-04-24T09:09:47;7.97;;;5.30;;
25207;SDS011;13153;52.316;21.166;2023-04-24T09:12:15;9.88;;;5.47;;
25207;SDS011;13153;52.316;21.166;2023-04-24T09:14:42;11.35;;;5.63;;
25207;SDS011;13153;52.316;21.166;2023-04-24T09:17:10;9.18;;;5.68;;
25207;SDS011;13153;52.316;21.166;2023-04-24T09:19:36;9.45;;;6.10;;
25207;SDS011;13153;52.316;21.166;2023-04-24T09:22:06;9.52;;;5.05;;
25207;SDS011;13153;52.316;21.166;2023-04-24T09:24:34;13.77;;;5.50;;
25207;SDS011;13153;52.316;21.166;2023-04-24T09:27:00;11.60;;;5.70;;
25207;SDS011;13153;52.316;21.166;2023-04-24T09:29:27;10.45;;;5.30;;
25207;SDS011;13153;52.316;21.166;2023-04-24T09:31:53;12.70;;;5.80;;
25207;SDS011;13153;52.316;21.166;2023-04-24T09:34:23;7.30;;;5.70;;
25207;SDS011;13153;52.316;21.166;2023-04-24T09:36:51;9.98;;;5.80;;
25207;SDS011;13153;52.316;21.166;2023-04-24T09:39:20;11.75;;;5.95;;
25207;SDS011;13153;52.316;21.166;2023-04-24T09:41:52;15.25;;;5.90;;
25207;SDS011;13153;52.316;21.166;2023-04-24T09:44:23;13.98;;;5.63;;
25207;SDS011;13153;52.316;21.166;2023-04-24T09:46:52;11.82;;;5.55;;
25207;SDS011;13153;52.316;21.166;2023-04-24T09:49:24;16.60;;;6.03;;
25207;SDS011;13153;52.316;21.166;2023-04-24T09:51:51;9.95;;;5.63;;
25207;SDS011;13153;52.316;21.166;2023-04-24T09:54:31;11.50;;;5.88;;
25207;SDS011;13153;52.316;21.166;2023-04-24T09:56:58;13.27;;;6.00;;
25207;SDS011;13153;52.316;21.166;2023-04-24T09:59:25;12.13;;;5.90;;
25207;SDS011;13153;52.316;21.166;2023-04-24T10:01:51;10.35;;;5.28;;
25207;SDS011;13153;52.316;21.166;2023-04-24T10:04:22;12.50;;;5.90;;
25207;SDS011;13153;52.316;21.166;2023-04-24T10:06:50;9.48;;;5.70;;
25207;SDS011;13153;52.316;21.166;2023-04-24T10:09:24;8.63;;;5.60;;
25207;SDS011;13153;52.316;21.166;2023-04-24T10:11:53;11.10;;;5.03;;
25207;SDS011;13153;52.316;21.166;2023-04-24T10:14:23;10.07;;;4.50;;
25207;SDS011;13153;52.316;21.166;2023-04-24T10:16:52;8.00;;;4.15;;
25207;SDS011;13153;52.316;21.166;2023-04-24T10:19:20;5.25;;;4.10;;
25207;SDS011;13153;52.316;21.166;2023-04-24T10:21:45;6.35;;;4.30;;
25207;SDS011;13153;52.316;21.166;2023-04-24T10:24:12;7.88;;;4.10;;
25207;SDS011;13153;52.316;21.166;2023-04-24T10:26:43;5.63;;;3.90;;
25207;SDS011;13153;52.316;21.166;2023-04-24T10:29:11;6.40;;;4.18;;
25207;SDS011;13153;52.316;21.166;2023-04-24T10:31:40;6.10;;;4.10;;
25207;SDS011;13153;52.316;21.166;2023-04-24T10:34:06;7.43;;;4.53;;
25207;SDS011;13153;52.316;21.166;2023-04-24T10:36:34;5.55;;;3.95;;
25207;SDS011;13153;52.316;21.166;2023-04-24T10:39:06;5.80;;;3.75;;
25207;SDS011;13153;52.316;21.166;2023-04-24T10:41:37;10.98;;;4.18;;
25207;SDS011;13153;52.316;21.166;2023-04-24T10:44:15;6.13;;;4.55;;
25207;SDS011;13153;52.316;21.166;2023-04-24T10:46:45;6.65;;;4.68;;
25207;SDS011;13153;52.316;21.166;2023-04-24T10:49:17;6.35;;;3.97;;
25207;SDS011;13153;52.316;21.166;2023-04-24T10:51:54;7.88;;;4.45;;
25207;SDS011;13153;52.316;21.166;2023-04-24T10:54:28;10.65;;;4.65;;
25207;SDS011;13153;52.316;21.166;2023-04-24T11:00:13;9.73;;;4.95;;
25207;SDS011;13153;52.316;21.166;2023-04-24T11:02:45;7.38;;;5.10;;
25207;SDS011;13153;52.316;21.166;2023-04-24T11:05:17;6.90;;;4.72;;
25207;SDS011;13153;52.316;21.166;2023-04-24T11:10:39;10.95;;;5.63;;
25207;SDS011;13153;52.316;21.166;2023-04-24T11:13:16;9.57;;;4.72;;
25207;SDS011;13153;52.316;21.166;2023-04-24T11:15:58;8.90;;;4.53;;
25207;SDS011;13153;52.316;21.166;2023-04-24T11:18:52;10.13;;;5.78;;
25207;SDS011;13153;52.316;21.166;2023-04-24T11:21:38;12.68;;;6.00;;
25207;SDS011;13153;52.316;21.166;2023-04-24T11:24:29;14.98;;;6.88;;
25207;SDS011;13153;52.316;21.166;2023-04-24T11:29:38;16.13;;;6.50;;
25207;SDS011;13153;52.316;21.166;2023-04-24T11:34:45;10.13;;;4.35;;
25207;SDS011;13153;52.316;21.166;2023-04-24T11:37:16;9.40;;;4.72;;
25207;SDS011;13153;52.316;21.166;2023-04-24T11:39:42;8.95;;;5.50;;
25207;SDS011;13153;52.316;21.166;2023-04-24T11:42:12;9.18;;;5.70;;
25207;SDS011;13153;52.316;21.166;2023-04-24T11:44:41;8.00;;;4.32;;
25207;SDS011;13153;52.316;21.166;2023-04-24T11:47:08;8.25;;;4.50;;
25207;SDS011;13153;52.316;21.166;2023-04-24T11:49:36;10.85;;;4.95;;
25207;SDS011;13153;52.316;21.166;2023-04-24T11:52:02;11.15;;;5.18;;
25207;SDS011;13153;52.316;21.166;2023-04-24T11:54:29;7.10;;;5.07;;
25207;SDS011;13153;52.316;21.166;2023-04-24T11:56:55;9.15;;;4.72;;
25207;SDS011;13153;52.316;21.166;2023-04-24T11:59:22;8.73;;;5.32;;
25207;SDS011;13153;52.316;21.166;2023-04-24T12:01:48;7.20;;;4.93;;
25207;SDS011;13153;52.316;21.166;2023-04-24T12:04:15;15.80;;;5.10;;
25207;SDS011;13153;52.316;21.166;2023-04-24T12:09:27;11.32;;;5.53;;
25207;SDS011;13153;52.316;21.166;2023-04-24T12:11:54;8.95;;;5.93;;
25207;SDS011;13153;52.316;21.166;2023-04-24T12:14:23;9.82;;;5.70;;
25207;SDS011;13153;52.316;21.166;2023-04-24T12:16:52;13.27;;;5.88;;
25207;SDS011;13153;52.316;21.166;2023-04-24T12:19:20;9.25;;;5.57;;
25207;SDS011;13153;52.316;21.166;2023-04-24T12:22:00;11.50;;;5.68;;
25207;SDS011;13153;52.316;21.166;2023-04-24T12:24:31;10.18;;;5.43;;
25207;SDS011;13153;52.316;21.166;2023-04-24T12:27:00;10.88;;;5.00;;
25207;SDS011;13153;52.316;21.166;2023-04-24T12:29:26;10.13;;;5.20;;
25207;SDS011;13153;52.316;21.166;2023-04-24T12:31:52;8.98;;;5.30;;
25207;SDS011;13153;52.316;21.166;2023-04-24T12:34:19;10.77;;;4.85;;
25207;SDS011;13153;52.316;21.166;2023-04-24T12:36:47;8.15;;;5.30;;
25207;SDS011;13153;52.316;21.166;2023-04-24T12:39:17;9.85;;;4.72;;
25207;SDS011;13153;52.316;21.166;2023-04-24T12:41:57;8.27;;;4.70;;
25207;SDS011;13153;52.316;21.166;2023-04-24T12:44:30;9.98;;;5.60;;
25207;SDS011;13153;52.316;21.166;2023-04-24T12:46:59;9.63;;;5.15;;
25207;SDS011;13153;52.316;21.166;2023-04-24T12:49:26;12.77;;;5.45;;
25207;SDS011;13153;52.316;21.166;2023-04-24T12:51:55;9.10;;;5.07;;
25207;SDS011;13153;52.316;21.166;2023-04-24T12:54:21;8.98;;;5.18;;
25207;SDS011;13153;52.316;21.166;2023-04-24T12:56:47;12.90;;;5.40;;
25207;SDS011;13153;52.316;21.166;2023-04-24T12:59:13;12.68;;;5.13;;
25207;SDS011;13153;52.316;21.166;2023-04-24T13:01:39;7.32;;;5.15;;
25207;SDS011;13153;52.316;21.166;2023-04-24T13:04:06;8.88;;;5.65;;
25207;SDS011;13153;52.316;21.166;2023-04-24T13:06:31;8.50;;;5.00;;
25207;SDS011;13153;52.316;21.166;2023-04-24T13:08:57;8.07;;;4.70;;
25207;SDS011;13153;52.316;21.166;2023-04-24T13:11:23;7.05;;;4.80;;
25207;SDS011;13153;52.316;21.166;2023-04-24T13:13:50;14.52;;;4.88;;
25207;SDS011;13153;52.316;21.166;2023-04-24T13:16:15;16.42;;;4.95;;
25207;SDS011;13153;52.316;21.166;2023-04-24T13:18:41;21.95;;;5.25;;
25207;SDS011;13153;52.316;21.166;2023-04-24T13:21:07;22.02;;;4.50;;
25207;SDS011;13153;52.316;21.166;2023-04-24T13:23:32;23.13;;;5.25;;
25207;SDS011;13153;52.316;21.166;2023-04-24T13:25:59;18.73;;;4.30;;
25207;SDS011;13153;52.316;21.166;2023-04-24T13:28:26;15.77;;;4.55;;
25207;SDS011;13153;52.316;21.166;2023-04-24T13:30:52;20.13;;;4.55;;
25207;SDS011;13153;52.316;21.166;2023-04-24T13:33:18;17.30;;;4.30;;
25207;SDS011;13153;52.316;21.166;2023-04-24T13:35:44;14.65;;;4.70;;
25207;SDS011;13153;52.316;21.166;2023-04-24T13:38:10;13.00;;;4.32;;
25207;SDS011;13153;52.316;21.166;2023-04-24T13:40:35;15.63;;;4.30;;
25207;SDS011;13153;52.316;21.166;2023-04-24T13:43:01;5.82;;;3.80;;
25207;SDS011;13153;52.316;21.166;2023-04-24T13:45:28;13.45;;;4.25;;
25207;SDS011;13153;52.316;21.166;2023-04-24T13:47:53;9.73;;;4.20;;
25207;SDS011;13153;52.316;21.166;2023-04-24T13:50:20;8.65;;;3.88;;
25207;SDS011;13153;52.316;21.166;2023-04-24T13:52:46;11.60;;;4.40;;
25207;SDS011;13153;52.316;21.166;2023-04-24T13:55:11;10.48;;;3.92;;
25207;SDS011;13153;52.316;21.166;2023-04-24T13:57:37;7.32;;;4.00;;
25207;SDS011;13153;52.316;21.166;2023-04-24T14:00:03;14.93;;;4.70;;
25207;SDS011;13153;52.316;21.166;2023-04-24T14:02:31;9.43;;;4.35;;
25207;SDS011;13153;52.316;21.166;2023-04-24T14:04:56;8.50;;;4.60;;
25207;SDS011;13153;52.316;21.166;2023-04-24T14:07:22;9.82;;;4.35;;
25207;SDS011;13153;52.316;21.166;2023-04-24T14:09:48;6.55;;;3.67;;
25207;SDS011;13153;52.316;21.166;2023-04-24T14:12:14;7.50;;;4.13;;
25207;SDS011;13153;52.316;21.166;2023-04-24T14:14:44;5.30;;;3.83;;
25207;SDS011;13153;52.316;21.166;2023-04-24T14:17:12;5.80;;;3.95;;
25207;SDS011;13153;52.316;21.166;2023-04-24T14:19:37;8.95;;;3.90;;
25207;SDS011;13153;52.316;21.166;2023-04-24T14:22:03;7.18;;;4.10;;
25207;SDS011;13153;52.316;21.166;2023-04-24T14:24:29;6.78;;;3.60;;
25207;SDS011;13153;52.316;21.166;2023-04-24T14:26:55;7.82;;;3.30;;
25207;SDS011;13153;52.316;21.166;2023-04-24T14:29:21;8.70;;;3.53;;
25207;SDS011;13153;52.316;21.166;2023-04-24T14:31:47;8.55;;;3.60;;
25207;SDS011;13153;52.316;21.166;2023-04-24T14:34:13;6.57;;;3.47;;
25207;SDS011;13153;52.316;21.166;2023-04-24T14:36:40;7.07;;;3.42;;
25207;SDS011;13153;52.316;21.166;2023-04-24T14:39:06;6.75;;;3.42;;